Terminal Aerodrome Forecast
Issued by NWS

Home | Current Version | Previous Version | Text Only | Print | Product List | Glossary On
Versions: 1 2 3 4 5 6 7 8 9 10 11 12 13 14 15 16
000
FTUS45 KFGZ 101100
TAFPGA
TAF
KPGA 101133Z 1012/1112 24005KT P6SM BKN200
     FM102000 25012KT P6SM SCT080 BKN110 PROB30 1021/1103 5SM -TSRA
      BKN080CB
     FM110800 VRB06KT P6SM FEW080 BKN200=

USA.gov is the U.S. government's official web portal to all federal, state and local government web resources and services.